Golden Princess — 2IWZ7 — position and weather

sailwx.info

Track history (hours):
 
Tides and Currents Weather Stations Pressure Air Temp Water Temp Dewpoint Dewpoint Depression Visibility Wind Speed Wind Dir Waves Ship Positions

Golden Princess

Last reported at 2018-Jun-21 23:56 UTC. Time now 2018-Jun-25 14:03 UTC.
Position N 58°18' W 136°16'.

Length 288 m; draft 8.5 m.

Type: Ship. MMSI: 235113472.

Date/timePositionNaut miles runAvg speedWind from/ knotsBaromVisibWave heightAir tempDewpointWater temp
2018-Jun-21 23:56N 58°18' W 136°16'717.2
2018-Jun-21 23:30N 58°21' W 136°03'612.6
2018-Jun-21 23:00N 58°26' W 135°58'713.8
2018-Jun-21 22:30N 58°33' W 136°04'713.4
2018-Jun-21 22:01N 58°39' W 136°04'816.0
2018-Jun-21 21:30N 58°45' W 136°16'15 2.9
2018-Jun-21 16:28N 58°52' W 136°40'817.1
2018-Jun-21 16:00N 58°49' W 136°27'917.7
2018-Jun-21 15:30N 58°43' W 136°14'817.3
2018-Jun-21 15:01N 58°36' W 136°04'815.8
2018-Jun-21 14:30N 58°28' W 136°02'510.8
2018-Jun-21 14:01N 58°23' W 135°58'510.5
2018-Jun-21 13:30N 58°19' W 135°52'611.9
2018-Jun-21 13:00N 58°17' W 135°41'612.0
2018-Jun-21 12:30N 58°15' W 135°30'612.1
2018-Jun-21 12:00N 58°13' W 135°19'  
2018-Jun-18 10:57N 54°55' W 131°08'611.2
2018-Jun-18 10:28N 54°50' W 131°08'1311.0
2018-Jun-18 09:17N 54°37' W 131°15'3 9.8
2018-Jun-18 08:56N 54°34' W 131°15'512.2
2018-Jun-18 08:30N 54°29' W 131°14'712.9
2018-Jun-18 07:59N 54°22' W 131°12'611.5
2018-Jun-18 07:30N 54°17' W 131°10'611.4
2018-Jun-18 07:00N 54°11' W 131°08'815.6
2018-Jun-18 06:30N 54°03' W 131°05'815.2
2018-Jun-18 06:00N 53°56' W 131°01'816.2
2018-Jun-18 05:30N 53°48' W 130°57'816.5
2018-Jun-18 05:00N 53°41' W 130°53'816.4
2018-Jun-18 04:30N 53°33' W 130°49'816.1
2018-Jun-18 04:00N 53°25' W 130°45'816.7
2018-Jun-18 03:30N 53°18' W 130°38'8816.5
2018-Jun-17 22:10N 52°04' W 129°19'317.6
2018-Jun-17 22:00N 52°03' W 129°15'817.0
2018-Jun-17 21:30N 51°59' W 129°03'816.8
2018-Jun-17 21:00N 51°55' W 128°51'816.7
2018-Jun-17 20:30N 51°49' W 128°41'816.7
2018-Jun-17 20:00N 51°42' W 128°34'917.3
2018-Jun-17 19:30N 51°34' W 128°30'816.6
2018-Jun-17 19:00N 51°25' W 128°27'816.6
2018-Jun-17 18:31N 51°18' W 128°23'816.4
2018-Jun-17 18:00N 51°11' W 128°16'917.6
2018-Jun-17 17:30N 51°06' W 128°04'816.2
2018-Jun-17 17:00N 51°02' W 127°53'611.7
2018-Jun-17 16:30N 50°58' W 127°46'815.7
2018-Jun-17 16:01N 50°53' W 127°36'815.7
2018-Jun-17 15:30N 50°49' W 127°25'714.1
2018-Jun-17 15:00N 50°47' W 127°15'917.8
2018-Jun-17 14:30N 50°43' W 127°02'1018.3
2018-Jun-17 13:59N 50°39' W 126°49'915.6
2018-Jun-17 13:23N 50°31' W 126°40'718.8
2018-Jun-17 13:00N 50°30' W 126°28'1018.1
2018-Jun-17 12:26N 50°29' W 126°13'816.3
2018-Jun-17 11:57N 50°26' W 126°01'1016.3
2018-Jun-17 11:21N 50°22' W 125°47'1317.0
2018-Jun-17 10:36N 50°20' W 125°27'111.2
2018-Jun-17 10:28N 50°19' W 125°25'817.5
2018-Jun-17 10:00N 50°12' W 125°22'611.5
2018-Jun-17 09:30N 50°06' W 125°18'613.0
2018-Jun-17 09:00N 50°01' W 125°13'611.8
2018-Jun-17 08:30N 49°56' W 125°07'611.8
2018-Jun-17 07:59N 49°52' W 125°00'611.8
2018-Jun-17 07:30N 49°48' W 124°54'611.8
2018-Jun-17 07:00N 49°44' W 124°47'611.5
2018-Jun-17 06:30N 49°40' W 124°41'611.2
2018-Jun-17 06:00N 49°35' W 124°36'611.6
2018-Jun-17 05:30N 49°31' W 124°31'611.2
2018-Jun-17 05:00N 49°27' W 124°25'611.6
2018-Jun-17 04:30N 49°24' W 124°17'611.3
2018-Jun-17 04:00N 49°23' W 124°08'611.6
2018-Jun-17 03:30N 49°22' W 123°59'611.3
2018-Jun-17 02:59N 49°20' W 123°51'911.4
2018-Jun-17 02:14N 49°18' W 123°38'311.5
2018-Jun-17 01:59N 49°17' W 123°34'511.1
2018-Jun-17 01:30N 49°16' W 123°25'611.5
2018-Jun-17 01:00N 49°18' W 123°18'611.4
2018-Jun-17 00:30N 49°19' W 123°09'2 4.6
2018-Jun-17 00:00N 49°17' W 123°06'0 0.0
2018-Jun-16 23:30N 49°17' W 123°06'0 0.0
2018-Jun-16 23:00N 49°17' W 123°06'0 0.0
2018-Jun-16 22:30N 49°17' W 123°06'0 0.0
2018-Jun-16 21:59N 49°17' W 123°06'0 0.0
2018-Jun-16 21:29N 49°17' W 123°06'0 0.0
2018-Jun-16 20:59N 49°17' W 123°06'0 0.0
2018-Jun-16 20:29N 49°17' W 123°06'0 0.0
2018-Jun-16 19:59N 49°17' W 123°06'0 0.0
2018-Jun-16 19:28N 49°17' W 123°06'0 0.0
2018-Jun-16 18:58N 49°17' W 123°06'0 0.0
2018-Jun-16 18:28N 49°17' W 123°06'0 0.0
2018-Jun-16 17:58N 49°17' W 123°06'0 0.0
2018-Jun-16 17:31N 49°17' W 123°06'0 0.0
2018-Jun-16 17:00N 49°17' W 123°06'0 0.0
2018-Jun-16 16:30N 49°17' W 123°06'0 0.0
2018-Jun-16 16:00N 49°17' W 123°06'0 0.0
2018-Jun-16 15:30N 49°17' W 123°06'0 0.0
2018-Jun-16 14:59N 49°17' W 123°06'0 0.0
2018-Jun-16 14:29N 49°17' W 123°06'0 0.0
2018-Jun-16 14:00N 49°17' W 123°06'0 1.0
2018-Jun-16 13:30N 49°18' W 123°06'4 8.3
2018-Jun-16 13:00N 49°19' W 123°13'510.3
2018-Jun-16 12:30N 49°17' W 123°20'510.5
2018-Jun-16 12:00N 49°13' W 123°26'5 8.9
2018-Jun-16 11:28N 49°14' W 123°33'510.0
2018-Jun-16 10:58N 49°16' W 123°40'6 9.4
2018-Jun-16 10:23N 49°19' W 123°48'4 9.6
2018-Jun-16 09:59N 49°20' W 123°53'5 9.7
2018-Jun-16 09:30N 49°21' W 123°60'4 8.6
2018-Jun-16 09:00N 49°22' W 124°06'5 9.6
2018-Jun-16 08:30N 49°23' W 124°14'5 9.7
2018-Jun-16 08:00N 49°25' W 124°21'5 9.9
2018-Jun-16 07:28N 49°28' W 124°27'510.3
2018-Jun-16 06:58N 49°32' W 124°33'510.5
2018-Jun-16 06:30N 49°36' W 124°37'510.4
2018-Jun-16 06:00N 49°40' W 124°42'510.5
2018-Jun-16 05:30N 49°44' W 124°48'610.7
2018-Jun-16 04:58N 49°48' W 124°54'511.0
2018-Jun-16 04:30N 49°51' W 124°60'611.1
2018-Jun-16 04:00N 49°55' W 125°06'611.7
2018-Jun-16 03:29N 49°60' W 125°12'613.4
2018-Jun-16 03:00N 50°05' W 125°17'612.8
2018-Jun-16 02:30N 50°11' W 125°22'3 5.3
2018-Jun-16 02:00N 50°12' W 125°18'73776.3 320 / 251010.6 5.4 14.5 6.210.0
2018-Jun-16 01:59N 50°18' W 125°25'3116.6
2018-Jun-16 00:08N 50°29' W 126°10'318.9
2018-Jun-15 23:59N 50°29' W 126°14'918.8
2018-Jun-15 23:30N 50°30' W 126°29'815.7
2018-Jun-15 22:58N 50°32' W 126°41'715.4
2018-Jun-15 22:30N 50°38' W 126°48'918.6
2018-Jun-15 22:00N 50°43' W 127°01'11714.3
2018-Jun-15 22:00N 50°36' W 126°48'2040.6 290 / 281014.3 5.4 11.3 8.716.0
2018-Jun-15 21:30N 50°46' W 127°15'1019.3
2018-Jun-15 21:00N 50°50' W 127°29'1019.7
2018-Jun-15 20:30N 50°56' W 127°41'714.4
2018-Jun-15 20:00N 51°00' W 127°50'918.4
2018-Jun-15 19:30N 51°04' W 128°03'918.6
2018-Jun-15 19:00N 51°08' W 128°17'917.8
2018-Jun-15 18:30N 51°10' W 128°30'917.9
2018-Jun-15 18:00N 51°12' W 128°44'918.1
2018-Jun-15 17:30N 51°14' W 128°58'917.9
2018-Jun-15 17:00N 51°18' W 129°11'917.8
2018-Jun-15 16:30N 51°23' W 129°23'1416.8
2018-Jun-15 15:39N 51°35' W 129°37'318.0
2018-Jun-15 15:28N 51°38' W 129°39'11118.9
2018-Jun-15 09:38N 53°21' W 130°43'518.3
2018-Jun-15 09:20N 53°26' W 130°46'618.2
2018-Jun-15 09:00N 53°32' W 130°49'1018.3
2018-Jun-15 08:28N 53°41' W 130°53'918.3
2018-Jun-15 08:00N 53°49' W 130°57'918.3
2018-Jun-15 07:30N 53°58' W 131°02'919.0
2018-Jun-15 07:00N 54°07' W 131°06'1019.6
2018-Jun-15 06:30N 54°17' W 131°10'1019.2
2018-Jun-15 06:00N 54°26' W 131°14'917.8
2018-Jun-15 05:29N 54°35' W 131°15'1017.9
2018-Jun-15 04:57N 54°45' W 131°10'78 5.2
2018-Jun-14 14:00N 55°48' W 132°30'   240 / 151010.310.8 12.5 7.811.0
2018-Jun-12 05:45N 58°08' W 135°03'414.7
2018-Jun-12 05:29N 58°08' W 135°10'814.9
2018-Jun-12 04:58N 58°11' W 135°23'714.6
2018-Jun-12 04:30N 58°15' W 135°34'714.5
2018-Jun-12 04:01N 58°19' W 135°46'713.1
2018-Jun-12 03:30N 58°21' W 135°58'510.3
2018-Jun-12 03:00N 58°26' W 135°59'612.5
2018-Jun-12 02:30N 58°32' W 136°04'612.3
2018-Jun-12 02:00N 58°38' W 136°03'510.5
2018-Jun-12 01:31N 58°43' W 136°08'713.8
2018-Jun-12 01:00N 58°46' W 136°20'814.1
2018-Jun-12 00:27N 58°51' W 136°32'  
Track history (hours):
 
Tides and Currents Weather Stations Pressure Air Temp Water Temp Dewpoint Dewpoint Depression Visibility Wind Speed Wind Dir Waves Ship Positions

Golden Princess

Last reported at 2018-Jun-21 23:56 UTC. Time now 2018-Jun-25 14:03 UTC.
Position N 58°18' W 136°16'.

Length 288 m; draft 8.5 m.

Type: Ship. MMSI: 235113472.

Date/timePositionNaut miles runAvg speedWind from/ knotsBaromVisibWave heightAir tempDewpointWater temp
2018-Jun-21 23:56N 58°18' W 136°16'717.2
2018-Jun-21 23:30N 58°21' W 136°03'612.6
2018-Jun-21 23:00N 58°26' W 135°58'713.8
2018-Jun-21 22:30N 58°33' W 136°04'713.4
2018-Jun-21 22:01N 58°39' W 136°04'816.0
2018-Jun-21 21:30N 58°45' W 136°16'15 2.9
2018-Jun-21 16:28N 58°52' W 136°40'817.1
2018-Jun-21 16:00N 58°49' W 136°27'917.7
2018-Jun-21 15:30N 58°43' W 136°14'817.3
2018-Jun-21 15:01N 58°36' W 136°04'815.8
2018-Jun-21 14:30N 58°28' W 136°02'510.8
2018-Jun-21 14:01N 58°23' W 135°58'510.5
2018-Jun-21 13:30N 58°19' W 135°52'611.9
2018-Jun-21 13:00N 58°17' W 135°41'612.0
2018-Jun-21 12:30N 58°15' W 135°30'612.1
2018-Jun-21 12:00N 58°13' W 135°19'  
2018-Jun-18 10:57N 54°55' W 131°08'611.2
2018-Jun-18 10:28N 54°50' W 131°08'1311.0
2018-Jun-18 09:17N 54°37' W 131°15'3 9.8
2018-Jun-18 08:56N 54°34' W 131°15'512.2
2018-Jun-18 08:30N 54°29' W 131°14'712.9
2018-Jun-18 07:59N 54°22' W 131°12'611.5
2018-Jun-18 07:30N 54°17' W 131°10'611.4
2018-Jun-18 07:00N 54°11' W 131°08'815.6
2018-Jun-18 06:30N 54°03' W 131°05'815.2
2018-Jun-18 06:00N 53°56' W 131°01'816.2
2018-Jun-18 05:30N 53°48' W 130°57'816.5
2018-Jun-18 05:00N 53°41' W 130°53'816.4
2018-Jun-18 04:30N 53°33' W 130°49'816.1
2018-Jun-18 04:00N 53°25' W 130°45'816.7
2018-Jun-18 03:30N 53°18' W 130°38'8816.5
2018-Jun-17 22:10N 52°04' W 129°19'317.6
2018-Jun-17 22:00N 52°03' W 129°15'817.0
2018-Jun-17 21:30N 51°59' W 129°03'816.8
2018-Jun-17 21:00N 51°55' W 128°51'816.7
2018-Jun-17 20:30N 51°49' W 128°41'816.7
2018-Jun-17 20:00N 51°42' W 128°34'917.3
2018-Jun-17 19:30N 51°34' W 128°30'816.6
2018-Jun-17 19:00N 51°25' W 128°27'816.6
2018-Jun-17 18:31N 51°18' W 128°23'816.4
2018-Jun-17 18:00N 51°11' W 128°16'917.6
2018-Jun-17 17:30N 51°06' W 128°04'816.2
2018-Jun-17 17:00N 51°02' W 127°53'611.7
2018-Jun-17 16:30N 50°58' W 127°46'815.7
2018-Jun-17 16:01N 50°53' W 127°36'815.7
2018-Jun-17 15:30N 50°49' W 127°25'714.1
2018-Jun-17 15:00N 50°47' W 127°15'917.8
2018-Jun-17 14:30N 50°43' W 127°02'1018.3
2018-Jun-17 13:59N 50°39' W 126°49'915.6
2018-Jun-17 13:23N 50°31' W 126°40'718.8
2018-Jun-17 13:00N 50°30' W 126°28'1018.1
2018-Jun-17 12:26N 50°29' W 126°13'816.3
2018-Jun-17 11:57N 50°26' W 126°01'1016.3
2018-Jun-17 11:21N 50°22' W 125°47'1317.0
2018-Jun-17 10:36N 50°20' W 125°27'111.2
2018-Jun-17 10:28N 50°19' W 125°25'817.5
2018-Jun-17 10:00N 50°12' W 125°22'611.5
2018-Jun-17 09:30N 50°06' W 125°18'613.0
2018-Jun-17 09:00N 50°01' W 125°13'611.8
2018-Jun-17 08:30N 49°56' W 125°07'611.8
2018-Jun-17 07:59N 49°52' W 125°00'611.8
2018-Jun-17 07:30N 49°48' W 124°54'611.8
2018-Jun-17 07:00N 49°44' W 124°47'611.5
2018-Jun-17 06:30N 49°40' W 124°41'611.2
2018-Jun-17 06:00N 49°35' W 124°36'611.6
2018-Jun-17 05:30N 49°31' W 124°31'611.2
2018-Jun-17 05:00N 49°27' W 124°25'611.6
2018-Jun-17 04:30N 49°24' W 124°17'611.3
2018-Jun-17 04:00N 49°23' W 124°08'611.6
2018-Jun-17 03:30N 49°22' W 123°59'611.3
2018-Jun-17 02:59N 49°20' W 123°51'911.4
2018-Jun-17 02:14N 49°18' W 123°38'311.5
2018-Jun-17 01:59N 49°17' W 123°34'511.1
2018-Jun-17 01:30N 49°16' W 123°25'611.5
2018-Jun-17 01:00N 49°18' W 123°18'611.4
2018-Jun-17 00:30N 49°19' W 123°09'2 4.6
2018-Jun-17 00:00N 49°17' W 123°06'0 0.0
2018-Jun-16 23:30N 49°17' W 123°06'0 0.0
2018-Jun-16 23:00N 49°17' W 123°06'0 0.0
2018-Jun-16 22:30N 49°17' W 123°06'0 0.0
2018-Jun-16 21:59N 49°17' W 123°06'0 0.0
2018-Jun-16 21:29N 49°17' W 123°06'0 0.0
2018-Jun-16 20:59N 49°17' W 123°06'0 0.0
2018-Jun-16 20:29N 49°17' W 123°06'0 0.0
2018-Jun-16 19:59N 49°17' W 123°06'0 0.0
2018-Jun-16 19:28N 49°17' W 123°06'0 0.0
2018-Jun-16 18:58N 49°17' W 123°06'0 0.0
2018-Jun-16 18:28N 49°17' W 123°06'0 0.0
2018-Jun-16 17:58N 49°17' W 123°06'0 0.0
2018-Jun-16 17:31N 49°17' W 123°06'0 0.0
2018-Jun-16 17:00N 49°17' W 123°06'0 0.0
2018-Jun-16 16:30N 49°17' W 123°06'0 0.0
2018-Jun-16 16:00N 49°17' W 123°06'0 0.0
2018-Jun-16 15:30N 49°17' W 123°06'0 0.0
2018-Jun-16 14:59N 49°17' W 123°06'0 0.0
2018-Jun-16 14:29N 49°17' W 123°06'0 0.0
2018-Jun-16 14:00N 49°17' W 123°06'0 1.0
2018-Jun-16 13:30N 49°18' W 123°06'4 8.3
2018-Jun-16 13:00N 49°19' W 123°13'510.3
2018-Jun-16 12:30N 49°17' W 123°20'510.5
2018-Jun-16 12:00N 49°13' W 123°26'5 8.9
2018-Jun-16 11:28N 49°14' W 123°33'510.0
2018-Jun-16 10:58N 49°16' W 123°40'6 9.4
2018-Jun-16 10:23N 49°19' W 123°48'4 9.6
2018-Jun-16 09:59N 49°20' W 123°53'5 9.7
2018-Jun-16 09:30N 49°21' W 123°60'4 8.6
2018-Jun-16 09:00N 49°22' W 124°06'5 9.6
2018-Jun-16 08:30N 49°23' W 124°14'5 9.7
2018-Jun-16 08:00N 49°25' W 124°21'5 9.9
2018-Jun-16 07:28N 49°28' W 124°27'510.3
2018-Jun-16 06:58N 49°32' W 124°33'510.5
2018-Jun-16 06:30N 49°36' W 124°37'510.4
2018-Jun-16 06:00N 49°40' W 124°42'510.5
2018-Jun-16 05:30N 49°44' W 124°48'610.7
2018-Jun-16 04:58N 49°48' W 124°54'511.0
2018-Jun-16 04:30N 49°51' W 124°60'611.1
2018-Jun-16 04:00N 49°55' W 125°06'611.7
2018-Jun-16 03:29N 49°60' W 125°12'613.4
2018-Jun-16 03:00N 50°05' W 125°17'612.8
2018-Jun-16 02:30N 50°11' W 125°22'3 5.3
2018-Jun-16 02:00N 50°12' W 125°18'73776.3 320 / 251010.6 5.4 14.5 6.210.0
2018-Jun-16 01:59N 50°18' W 125°25'3116.6
2018-Jun-16 00:08N 50°29' W 126°10'318.9
2018-Jun-15 23:59N 50°29' W 126°14'918.8
2018-Jun-15 23:30N 50°30' W 126°29'815.7
2018-Jun-15 22:58N 50°32' W 126°41'715.4
2018-Jun-15 22:30N 50°38' W 126°48'918.6
2018-Jun-15 22:00N 50°43' W 127°01'11714.3
2018-Jun-15 22:00N 50°36' W 126°48'2040.6 290 / 281014.3 5.4 11.3 8.716.0
2018-Jun-15 21:30N 50°46' W 127°15'1019.3
2018-Jun-15 21:00N 50°50' W 127°29'1019.7
2018-Jun-15 20:30N 50°56' W 127°41'714.4
2018-Jun-15 20:00N 51°00' W 127°50'918.4
2018-Jun-15 19:30N 51°04' W 128°03'918.6
2018-Jun-15 19:00N 51°08' W 128°17'917.8
2018-Jun-15 18:30N 51°10' W 128°30'917.9
2018-Jun-15 18:00N 51°12' W 128°44'918.1
2018-Jun-15 17:30N 51°14' W 128°58'917.9
2018-Jun-15 17:00N 51°18' W 129°11'917.8
2018-Jun-15 16:30N 51°23' W 129°23'1416.8
2018-Jun-15 15:39N 51°35' W 129°37'318.0
2018-Jun-15 15:28N 51°38' W 129°39'11118.9
2018-Jun-15 09:38N 53°21' W 130°43'518.3
2018-Jun-15 09:20N 53°26' W 130°46'618.2
2018-Jun-15 09:00N 53°32' W 130°49'1018.3
2018-Jun-15 08:28N 53°41' W 130°53'918.3
2018-Jun-15 08:00N 53°49' W 130°57'918.3
2018-Jun-15 07:30N 53°58' W 131°02'919.0
2018-Jun-15 07:00N 54°07' W 131°06'1019.6
2018-Jun-15 06:30N 54°17' W 131°10'1019.2
2018-Jun-15 06:00N 54°26' W 131°14'917.8
2018-Jun-15 05:29N 54°35' W 131°15'1017.9
2018-Jun-15 04:57N 54°45' W 131°10'78 5.2
2018-Jun-14 14:00N 55°48' W 132°30'   240 / 151010.310.8 12.5 7.811.0
2018-Jun-12 05:45N 58°08' W 135°03'414.7
2018-Jun-12 05:29N 58°08' W 135°10'814.9
2018-Jun-12 04:58N 58°11' W 135°23'714.6
2018-Jun-12 04:30N 58°15' W 135°34'714.5
2018-Jun-12 04:01N 58°19' W 135°46'713.1
2018-Jun-12 03:30N 58°21' W 135°58'510.3
2018-Jun-12 03:00N 58°26' W 135°59'612.5
2018-Jun-12 02:30N 58°32' W 136°04'612.3
2018-Jun-12 02:00N 58°38' W 136°03'510.5
2018-Jun-12 01:31N 58°43' W 136°08'713.8
2018-Jun-12 01:00N 58°46' W 136°20'814.1
2018-Jun-12 00:27N 58°51' W 136°32'  

Dump ship's entire track history